Time;durP1;ratioP1;P1;durP2;ratioP2;P2;SDS_P1;SDS_P2;PMS_P1;PMS_P2;Temp;Humidity;BMP_temperature;BMP_pressure;BME280_temperature;BME280_humidity;BME280_pressure;Samples;Min_cycle;Max_cycle;Signal;HPM_P1;HPM_P2
2022/04/22 00:00:37;;;;;;;3.73;2.90;;;6.90;99.90;;;;;;5102480;27;20290;-49
2022/04/22 00:03:05;;;;;;;5.23;2.83;;;6.90;99.90;;;;;;5096256;28;20751;-51
2022/04/22 00:05:34;;;;;;;4.80;2.70;;;6.80;99.90;;;;;;5096709;27;20209;-48
2022/04/22 00:08:00;;;;;;;3.17;2.73;;;6.80;99.90;;;;;;5102582;27;20202;-52
2022/04/22 00:10:27;;;;;;;5.17;2.73;;;6.70;99.90;;;;;;5079344;28;20682;-50
2022/04/22 00:12:54;;;;;;;4.90;3.20;;;6.70;99.90;;;;;;5088533;28;20225;-47
2022/04/22 00:15:21;;;;;;;6.07;2.83;;;6.70;99.90;;;;;;5084899;28;20199;-50
2022/04/22 00:17:49;;;;;;;4.40;3.30;;;6.70;99.90;;;;;;5092653;28;20201;-46
2022/04/22 00:20:16;;;;;;;5.23;2.77;;;6.70;99.90;;;;;;5086350;27;20257;-53
2022/04/22 00:22:45;;;;;;;5.57;2.80;;;6.70;99.90;;;;;;5106116;27;20549;-48
2022/04/22 00:25:14;;;;;;;5.50;3.17;;;6.60;99.90;;;;;;5088073;28;20252;-52
2022/04/22 00:27:42;;;;;;;5.20;3.20;;;6.60;99.90;;;;;;5087672;28;20204;-46
2022/04/22 00:30:11;;;;;;;5.90;2.97;;;6.70;99.90;;;;;;5093621;28;20225;-46
2022/04/22 00:32:38;;;;;;;3.73;2.90;;;6.70;99.90;;;;;;5087629;27;20221;-47
2022/04/22 00:35:06;;;;;;;4.43;2.70;;;6.70;99.90;;;;;;5082852;27;20201;-48
2022/04/22 00:37:33;;;;;;;6.33;3.13;;;6.60;99.90;;;;;;5113558;27;20265;-46
2022/04/22 00:40:01;;;;;;;4.23;2.83;;;6.60;99.90;;;;;;5098415;27;20194;-52
2022/04/22 00:42:28;;;;;;;5.73;3.10;;;6.60;99.90;;;;;;5094452;27;20221;-47
2022/04/22 00:44:56;;;;;;;5.30;2.90;;;6.60;99.90;;;;;;5096655;27;20270;-48
2022/04/22 00:47:23;;;;;;;6.77;2.73;;;6.60;99.90;;;;;;5096422;28;20255;-47
2022/04/22 00:49:51;;;;;;;10.20;3.40;;;6.60;99.90;;;;;;5100534;28;20650;-53
2022/04/22 00:52:19;;;;;;;3.37;3.00;;;6.60;99.90;;;;;;5088918;27;20225;-47
2022/04/22 00:54:46;;;;;;;3.07;2.77;;;6.60;99.90;;;;;;5093301;27;20568;-51
2022/04/22 00:57:15;;;;;;;4.37;3.20;;;6.50;99.90;;;;;;5084410;28;20198;-48
2022/04/22 00:59:42;;;;;;;6.10;3.10;;;6.60;99.90;;;;;;5091373;28;20213;-47
2022/04/22 01:02:09;;;;;;;5.30;2.90;;;6.50;99.90;;;;;;5083764;28;20275;-47
2022/04/22 01:10:07;;;;;;;5.50;2.97;;;6.50;99.90;;;;;;5109109;27;20683;-53
2022/04/22 01:12:35;;;;;;;5.27;3.23;;;6.50;99.90;;;;;;5091605;27;20286;-52
2022/04/22 01:15:02;;;;;;;4.67;3.30;;;6.50;99.90;;;;;;5094077;28;20506;-47
2022/04/22 01:17:29;;;;;;;4.73;3.13;;;6.40;99.90;;;;;;5094429;28;20225;-51
2022/04/22 01:19:55;;;;;;;4.63;2.80;;;6.40;99.90;;;;;;5094481;28;20224;-45
2022/04/22 01:22:24;;;;;;;5.23;3.37;;;6.40;99.90;;;;;;5083858;27;20217;-48
2022/04/22 01:24:54;;;;;;;3.37;3.07;;;6.40;99.90;;;;;;5105324;27;20212;-47
2022/04/22 01:27:23;;;;;;;4.50;2.53;;;6.40;99.90;;;;;;5087128;27;20199;-51
2022/04/22 01:29:49;;;;;;;5.10;2.60;;;6.40;99.90;;;;;;5095447;28;20209;-48
2022/04/22 01:32:16;;;;;;;5.53;3.17;;;6.40;99.90;;;;;;5096147;28;20299;-52
2022/04/22 01:34:43;;;;;;;4.73;3.13;;;6.30;99.90;;;;;;5085153;28;20267;-46
2022/04/22 01:37:11;;;;;;;5.93;2.87;;;6.30;99.90;;;;;;5102009;28;20714;-48
2022/04/22 01:39:39;;;;;;;4.70;3.00;;;6.20;99.90;;;;;;5081179;27;20285;-45
2022/04/22 01:42:06;;;;;;;5.83;3.10;;;6.20;99.90;;;;;;5093632;27;20236;-45
2022/04/22 01:44:35;;;;;;;5.77;2.47;;;6.20;99.90;;;;;;5077335;28;20757;-50
2022/04/22 01:47:02;;;;;;;5.00;2.90;;;6.20;99.90;;;;;;5081445;28;20259;-51
2022/04/22 01:49:29;;;;;;;4.07;2.50;;;6.20;99.90;;;;;;5084086;28;20197;-51
2022/04/22 01:51:57;;;;;;;5.47;2.70;;;6.20;99.90;;;;;;5092455;27;20226;-47
2022/04/22 01:54:24;;;;;;;4.97;2.70;;;6.10;99.90;;;;;;5086467;28;20280;-50
2022/04/22 01:56:52;;;;;;;4.93;3.00;;;6.10;99.90;;;;;;5102240;27;20284;-52
2022/04/22 01:59:19;;;;;;;6.70;3.33;;;6.10;99.90;;;;;;5096781;27;20199;-52
2022/04/22 02:01:46;;;;;;;4.80;2.90;;;6.20;99.90;;;;;;5086403;28;20213;-51
2022/04/22 02:04:13;;;;;;;5.77;3.10;;;6.20;99.90;;;;;;5090605;28;20220;-46
2022/04/22 02:06:40;;;;;;;4.27;2.87;;;6.20;99.90;;;;;;5085009;28;20197;-46
2022/04/22 02:09:07;;;;;;;4.07;2.37;;;6.10;99.90;;;;;;5084822;28;20571;-51
2022/04/22 02:11:34;;;;;;;6.50;2.93;;;6.10;99.90;;;;;;5089737;28;20217;-50
2022/04/22 02:14:02;;;;;;;3.93;3.00;;;6.10;99.90;;;;;;5088492;28;20200;-47
2022/04/22 02:16:29;;;;;;;3.87;2.80;;;6.20;99.90;;;;;;5086557;28;20205;-50
2022/04/22 02:18:57;;;;;;;4.50;2.60;;;6.10;99.90;;;;;;5097549;28;20201;-45
2022/04/22 02:21:24;;;;;;;5.00;2.70;;;6.10;99.90;;;;;;5091637;28;20267;-53
2022/04/22 02:23:51;;;;;;;4.27;3.30;;;6.10;99.90;;;;;;5082909;28;20213;-46
2022/04/22 02:26:17;;;;;;;5.13;2.60;;;6.00;99.90;;;;;;5107777;28;20553;-49
2022/04/22 02:28:44;;;;;;;7.63;3.03;;;6.00;99.90;;;;;;5093578;28;20268;-48
2022/04/22 02:31:13;;;;;;;4.53;3.00;;;6.00;99.90;;;;;;5096395;28;20204;-53
2022/04/22 02:33:42;;;;;;;4.87;2.80;;;5.90;99.90;;;;;;5090041;28;21297;-51
2022/04/22 02:36:11;;;;;;;6.40;2.47;;;5.90;99.90;;;;;;5103118;28;20281;-50
2022/04/22 02:38:39;;;;;;;7.10;3.00;;;6.00;99.90;;;;;;5093052;28;20225;-52
2022/04/22 02:46:45;;;;;;;3.97;2.93;;;5.90;99.90;;;;;;5081791;28;20205;-49
2022/04/22 02:49:11;;;;;;;5.77;3.10;;;5.90;99.90;;;;;;5089268;28;20290;-49
2022/04/22 02:51:38;;;;;;;7.40;3.43;;;6.00;99.90;;;;;;5093896;28;20209;-48
2022/04/22 02:54:05;;;;;;;2.63;2.43;;;6.00;99.90;;;;;;5093067;27;20597;-52
2022/04/22 02:56:32;;;;;;;2.97;2.67;;;6.00;99.90;;;;;;5091581;27;20213;-51
2022/04/22 02:59:00;;;;;;;5.07;3.07;;;6.00;99.90;;;;;;5099437;27;20202;-46
2022/04/22 03:01:27;;;;;;;10.20;3.30;;;6.00;99.90;;;;;;5092015;28;20684;-50
2022/04/22 03:03:55;;;;;;;4.77;3.03;;;6.00;99.90;;;;;;5090638;28;20209;-47
2022/04/22 03:06:24;;;;;;;7.37;2.93;;;6.00;99.90;;;;;;5097004;28;20194;-47
2022/04/22 03:08:51;;;;;;;5.83;2.83;;;6.00;99.90;;;;;;5077723;28;20212;-51
2022/04/22 03:11:21;;;;;;;6.43;2.47;;;6.00;99.90;;;;;;5086342;27;20193;-46
2022/04/22 03:13:49;;;;;;;7.57;3.07;;;6.00;99.90;;;;;;5094556;27;20665;-48
2022/04/22 03:16:16;;;;;;;4.63;3.07;;;6.00;99.90;;;;;;5098065;27;20376;-50
2022/04/22 03:18:43;;;;;;;6.20;3.03;;;5.90;99.90;;;;;;5112866;27;20223;-47
2022/04/22 03:21:11;;;;;;;3.83;2.87;;;5.90;99.90;;;;;;5083598;28;20205;-45
2022/04/22 03:23:39;;;;;;;6.60;3.33;;;5.90;99.90;;;;;;5105430;28;20193;-50
2022/04/22 03:26:05;;;;;;;5.13;3.00;;;5.90;99.90;;;;;;5077284;27;20223;-47
2022/04/22 03:28:32;;;;;;;5.77;3.23;;;5.90;99.90;;;;;;5104716;27;20193;-47
2022/04/22 03:30:59;;;;;;;4.43;2.67;;;5.90;99.90;;;;;;5098931;27;20204;-47
2022/04/22 03:33:26;;;;;;;6.23;3.13;;;5.80;99.90;;;;;;5090905;27;20241;-46
2022/04/22 03:35:53;;;;;;;8.73;3.93;;;5.80;99.90;;;;;;5101080;28;20205;-52
2022/04/22 03:38:23;;;;;;;5.00;3.10;;;5.90;99.90;;;;;;5101333;27;20198;-47
2022/04/22 03:40:52;;;;;;;6.27;3.10;;;5.90;99.90;;;;;;5097208;27;20276;-51
2022/04/22 03:43:20;;;;;;;6.33;3.23;;;5.90;99.90;;;;;;5096927;27;20215;-49
2022/04/22 03:45:48;;;;;;;6.70;3.90;;;5.90;99.90;;;;;;5103550;27;20209;-53
2022/04/22 03:48:15;;;;;;;6.83;3.17;;;5.90;99.90;;;;;;5081069;28;20603;-50
2022/04/22 03:50:43;;;;;;;8.57;3.60;;;5.90;99.90;;;;;;5096312;28;20212;-50
2022/04/22 03:53:11;;;;;;;9.73;3.93;;;5.90;99.90;;;;;;5097676;27;20213;-52
2022/04/22 03:55:40;;;;;;;4.33;3.53;;;5.90;99.90;;;;;;5108840;27;20657;-53
2022/04/22 03:58:12;;;;;;;10.13;3.13;;;5.90;99.90;;;;;;5093376;27;20892;-48
2022/04/22 04:00:40;;;;;;;5.97;3.50;;;5.90;99.90;;;;;;5096082;27;20246;-50
2022/04/22 04:03:09;;;;;;;7.73;3.97;;;5.90;99.90;;;;;;5095288;27;20441;-47
2022/04/22 04:05:36;;;;;;;6.90;3.67;;;6.00;99.90;;;;;;5107455;27;20292;-48
2022/04/22 04:08:04;;;;;;;5.73;4.43;;;6.00;99.90;;;;;;5091899;27;20206;-48
2022/04/22 04:16:02;;;;;;;7.30;3.77;;;6.20;99.90;;;;;;5097106;27;20189;-51
2022/04/22 04:18:30;;;;;;;5.93;3.93;;;6.20;99.90;;;;;;5096220;28;20726;-48
2022/04/22 04:23:43;;;;;;;6.87;3.93;;;6.30;99.90;;;;;;5092442;28;20205;-46
2022/04/22 04:26:11;;;;;;;5.23;3.90;;;6.30;99.90;;;;;;5097089;28;20901;-50
2022/04/22 04:28:40;;;;;;;4.77;4.00;;;6.30;99.90;;;;;;5082906;27;20281;-50
2022/04/22 04:31:08;;;;;;;8.00;4.10;;;6.30;99.90;;;;;;5106131;27;20186;-50
2022/04/22 04:33:36;;;;;;;5.10;3.80;;;6.30;99.90;;;;;;5094627;28;20298;-48
2022/04/22 04:36:05;;;;;;;6.77;4.03;;;6.30;99.90;;;;;;5091326;28;20218;-48
2022/04/22 04:38:33;;;;;;;5.70;3.47;;;6.30;99.90;;;;;;5086183;28;20262;-51
2022/04/22 04:41:00;;;;;;;10.23;4.37;;;6.40;99.90;;;;;;5096423;28;20293;-51
2022/04/22 04:43:27;;;;;;;8.47;4.07;;;6.40;99.90;;;;;;5084902;28;20217;-54
2022/04/22 04:45:55;;;;;;;3.90;3.40;;;6.40;99.90;;;;;;5091955;27;20486;-47
2022/04/22 04:48:22;;;;;;;6.20;4.10;;;6.40;99.90;;;;;;5097008;27;20193;-50
2022/04/22 04:50:51;;;;;;;4.47;3.97;;;6.40;99.90;;;;;;5089343;27;20191;-52
2022/04/22 04:53:19;;;;;;;3.97;3.30;;;6.50;99.90;;;;;;5096673;27;20209;-52
2022/04/22 04:55:46;;;;;;;5.33;3.60;;;6.50;99.90;;;;;;5093840;28;20197;-50
2022/04/22 04:58:13;;;;;;;7.90;3.70;;;6.50;99.90;;;;;;5101333;28;20236;-47
2022/04/22 05:00:40;;;;;;;5.73;3.60;;;6.60;99.90;;;;;;5089497;27;20205;-48
2022/04/22 05:03:08;;;;;;;5.77;3.67;;;6.60;99.90;;;;;;5096247;27;20222;-46
2022/04/22 05:05:35;;;;;;;7.77;3.67;;;6.60;99.90;;;;;;5082709;28;20214;-49
2022/04/22 05:08:02;;;;;;;6.77;3.77;;;6.60;99.90;;;;;;5089927;27;20297;-48
2022/04/22 05:10:30;;;;;;;6.27;3.10;;;6.70;99.90;;;;;;5081126;28;20206;-52
2022/04/22 05:12:57;;;;;;;8.33;3.17;;;6.70;99.90;;;;;;5088102;28;20213;-48
2022/04/22 05:15:24;;;;;;;5.63;3.40;;;6.80;99.90;;;;;;5088879;27;20654;-51
2022/04/22 05:17:52;;;;;;;6.93;4.10;;;6.80;99.90;;;;;;5093245;27;20195;-47
2022/04/22 05:20:23;;;;;;;4.47;3.23;;;6.90;99.90;;;;;;5098048;27;20209;-49
2022/04/22 05:22:49;;;;;;;7.97;3.80;;;6.90;99.90;;;;;;5093188;27;20214;-53
2022/04/22 05:25:17;;;;;;;7.70;3.57;;;7.00;99.90;;;;;;5091413;27;20287;-51
2022/04/22 05:27:44;;;;;;;4.40;3.63;;;7.00;99.90;;;;;;5093277;28;20243;-48
2022/04/22 05:32:59;;;;;;;6.83;3.20;;;7.20;99.90;;;;;;5106150;27;20213;-46
2022/04/22 05:35:28;;;;;;;8.93;3.77;;;7.20;99.90;;;;;;5093843;27;20208;-52
2022/04/22 05:37:56;;;;;;;7.27;3.33;;;7.30;99.90;;;;;;5096019;28;20193;-46
2022/04/22 05:40:25;;;;;;;4.23;2.87;;;7.30;99.90;;;;;;5091374;27;20233;-52
2022/04/22 05:42:53;;;;;;;7.47;3.20;;;7.40;99.90;;;;;;5080156;28;20235;-46
2022/04/22 05:45:21;;;;;;;9.90;3.17;;;7.40;99.90;;;;;;5098651;28;20210;-50
2022/04/22 05:47:49;;;;;;;5.57;3.07;;;7.50;99.90;;;;;;5083536;27;20206;-49
2022/04/22 05:50:17;;;;;;;6.83;3.10;;;7.50;99.90;;;;;;5099642;27;20201;-52
2022/04/22 05:52:46;;;;;;;5.77;2.80;;;7.60;99.90;;;;;;5093813;27;21024;-49
2022/04/22 05:55:16;;;;;;;4.40;2.70;;;7.60;99.90;;;;;;5096749;27;20193;-47
2022/04/22 05:57:45;;;;;;;4.53;2.90;;;7.70;99.90;;;;;;5084311;28;20836;-49
2022/04/22 06:00:14;;;;;;;6.13;3.03;;;7.70;99.90;;;;;;5098722;28;20252;-50
2022/04/22 06:02:41;;;;;;;6.33;3.33;;;7.80;99.90;;;;;;5080586;28;20229;-47
2022/04/22 06:05:09;;;;;;;6.37;3.03;;;7.80;99.90;;;;;;5102653;28;20677;-48
2022/04/22 06:07:37;;;;;;;5.10;3.27;;;7.90;99.90;;;;;;5084563;28;20197;-48
2022/04/22 06:12:51;;;;;;;3.20;2.73;;;8.00;99.90;;;;;;5079599;28;20216;-47
2022/04/22 06:15:19;;;;;;;5.60;2.80;;;8.00;99.90;;;;;;5091814;28;20205;-49
2022/04/22 06:17:47;;;;;;;3.00;2.60;;;8.10;99.90;;;;;;5078313;28;21847;-51
2022/04/22 06:20:14;;;;;;;5.23;2.50;;;8.20;99.90;;;;;;5123634;28;20222;-49
2022/04/22 06:22:42;;;;;;;6.93;3.00;;;8.30;99.90;;;;;;5104245;28;20207;-47
2022/04/22 06:25:11;;;;;;;7.47;2.77;;;8.30;99.90;;;;;;5088021;27;20221;-47
2022/04/22 06:27:39;;;;;;;10.20;3.00;;;8.40;99.90;;;;;;5103341;28;20209;-50
2022/04/22 06:30:08;;;;;;;5.67;3.13;;;8.50;99.90;;;;;;5094541;27;20204;-49
2022/04/22 06:32:36;;;;;;;5.90;2.83;;;8.50;99.90;;;;;;5083997;28;20228;-49
2022/04/22 06:35:05;;;;;;;5.60;2.60;;;8.60;99.90;;;;;;5098914;27;20208;-47
2022/04/22 06:37:35;;;;;;;6.40;2.70;;;8.60;99.90;;;;;;5100048;27;20204;-49
2022/04/22 06:45:47;;;;;;;5.97;2.97;;;8.80;99.90;;;;;;5081434;28;20293;-49
2022/04/22 06:48:15;;;;;;;9.20;2.80;;;8.90;99.90;;;;;;5085917;28;20216;-49
2022/04/22 06:50:43;;;;;;;3.77;2.50;;;8.90;99.90;;;;;;5079104;27;20283;-51
2022/04/22 06:53:11;;;;;;;7.10;3.23;;;8.90;99.90;;;;;;5110779;27;20216;-53
2022/04/22 06:55:39;;;;;;;4.57;2.50;;;9.00;99.90;;;;;;5082973;28;20201;-49
2022/04/22 06:58:10;;;;;;;6.87;2.73;;;9.10;99.90;;;;;;5088925;28;20285;-47
2022/04/22 07:00:37;;;;;;;5.40;2.40;;;9.20;99.90;;;;;;5090408;28;20263;-52
2022/04/22 07:03:04;;;;;;;5.00;2.70;;;9.20;99.90;;;;;;5088566;27;20217;-50
2022/04/22 07:05:33;;;;;;;6.17;2.50;;;9.30;99.90;;;;;;5087081;27;20210;-51
2022/04/22 07:08:00;;;;;;;8.67;2.27;;;9.40;99.90;;;;;;5103817;27;20229;-47
2022/04/22 07:10:27;;;;;;;6.63;2.90;;;9.40;99.90;;;;;;5085297;27;20204;-49
2022/04/22 07:12:56;;;;;;;5.93;2.60;;;9.50;99.90;;;;;;5101334;27;20304;-50
2022/04/22 07:15:25;;;;;;;4.60;2.40;;;9.50;99.90;;;;;;5100908;28;20194;-49
2022/04/22 07:17:52;;;;;;;5.23;2.50;;;9.50;99.90;;;;;;5083331;28;20206;-46
2022/04/22 07:20:21;;;;;;;4.47;2.67;;;9.60;99.90;;;;;;5088096;27;20216;-47
2022/04/22 07:22:48;;;;;;;8.07;2.77;;;9.70;99.90;;;;;;5091909;27;20205;-49
2022/04/22 07:25:15;;;;;;;5.10;2.30;;;9.70;99.90;;;;;;5087191;28;20209;-47
2022/04/22 07:27:45;;;;;;;5.03;2.43;;;9.70;99.90;;;;;;5086000;28;20205;-46
2022/04/22 07:30:13;;;;;;;2.80;2.30;;;9.70;99.90;;;;;;5104102;27;20280;-49
2022/04/22 07:32:42;;;;;;;5.80;2.20;;;9.80;99.90;;;;;;5094746;28;20229;-52
2022/04/22 07:35:12;;;;;;;6.77;3.00;;;9.90;99.90;;;;;;5095461;28;20301;-49
2022/04/22 07:37:39;;;;;;;8.67;2.73;;;10.00;99.90;;;;;;5092755;27;20237;-50
2022/04/22 07:40:07;;;;;;;4.87;2.83;;;10.10;99.90;;;;;;5101554;27;20197;-48
2022/04/22 07:42:35;;;;;;;4.97;3.30;;;10.20;99.90;;;;;;5096931;27;20762;-51
2022/04/22 07:47:50;;;;;;;7.87;2.60;;;10.30;99.90;;;;;;5087775;28;20949;-53
2022/04/22 07:50:17;;;;;;;4.00;2.67;;;10.30;99.90;;;;;;5095142;28;20197;-53
2022/04/22 07:52:44;;;;;;;6.50;2.40;;;10.50;99.90;;;;;;5090306;27;20216;-48
2022/04/22 07:55:13;;;;;;;5.40;2.63;;;10.60;99.90;;;;;;5102658;27;20193;-47
2022/04/22 07:57:40;;;;;;;6.50;2.83;;;10.60;99.90;;;;;;5093084;28;20235;-50
2022/04/22 08:00:08;;;;;;;5.47;3.50;;;10.70;99.90;;;;;;5090335;28;20680;-47
2022/04/22 08:02:40;;;;;;;8.03;3.17;;;10.80;99.90;;;;;;5089298;27;20237;-52
2022/04/22 08:05:11;;;;;;;7.77;2.53;;;10.90;99.90;;;;;;5102144;28;20185;-50
2022/04/22 08:07:38;;;;;;;9.03;2.60;;;11.00;99.90;;;;;;5082857;27;20304;-52
2022/04/22 08:10:06;;;;;;;7.00;2.87;;;11.00;99.90;;;;;;5088639;27;20201;-50
2022/04/22 08:12:33;;;;;;;7.10;2.67;;;11.10;99.90;;;;;;5095296;27;20226;-52
2022/04/22 08:15:03;;;;;;;5.50;2.50;;;11.20;99.90;;;;;;5107166;27;20290;-47
2022/04/22 08:17:36;;;;;;;7.07;3.20;;;11.20;99.90;;;;;;5090638;28;20674;-52
2022/04/22 08:20:03;;;;;;;6.27;3.27;;;11.20;99.90;;;;;;5098577;28;20192;-49
2022/04/22 08:22:31;;;;;;;7.27;3.03;;;11.20;99.90;;;;;;5097313;27;20221;-52
2022/04/22 08:24:58;;;;;;;5.60;2.47;;;11.20;99.90;;;;;;5105163;27;20217;-51
2022/04/22 08:27:26;;;;;;;5.97;2.40;;;11.30;99.90;;;;;;5111486;27;20298;-48
2022/04/22 08:29:53;;;;;;;8.80;3.03;;;11.30;99.90;;;;;;5088753;27;20595;-53
2022/04/22 08:32:20;;;;;;;5.50;2.40;;;11.40;99.90;;;;;;5093825;27;20228;-51
2022/04/22 08:34:47;;;;;;;4.23;2.80;;;11.50;99.90;;;;;;5095587;27;20320;-52
2022/04/22 08:37:14;;;;;;;4.73;2.60;;;11.60;99.90;;;;;;5090455;27;20293;-49
2022/04/22 08:39:42;;;;;;;7.63;2.60;;;11.50;99.90;;;;;;5083988;27;20677;-49
2022/04/22 08:42:12;;;;;;;2.63;2.33;;;11.60;99.90;;;;;;5096762;27;20225;-46
2022/04/22 08:44:39;;;;;;;6.03;2.67;;;11.80;99.90;;;;;;5096136;27;21859;-49
2022/04/22 08:50:03;;;;;;;8.43;2.90;;;11.90;99.90;;;;;;5092984;27;20189;-50
2022/04/22 08:52:34;;;;;;;5.63;2.27;;;11.90;99.90;;;;;;5081408;28;20247;-49
2022/04/22 08:55:04;;;;;;;3.80;2.70;;;12.00;99.90;;;;;;5087220;27;20208;-45
2022/04/22 08:57:30;;;;;;;9.30;3.67;;;12.10;99.90;;;;;;5090883;27;20213;-48
2022/04/22 08:59:59;;;;;;;6.83;2.57;;;12.30;99.90;;;;;;5092762;28;20193;-46
2022/04/22 09:02:26;;;;;;;6.00;2.60;;;12.30;99.90;;;;;;5087122;27;21010;-52
2022/04/22 09:04:53;;;;;;;8.27;3.10;;;12.40;99.90;;;;;;5091533;28;20193;-47
2022/04/22 09:07:22;;;;;;;6.40;3.00;;;12.40;99.90;;;;;;5096526;27;20213;-49
2022/04/22 09:09:49;;;;;;;8.37;3.13;;;12.40;99.90;;;;;;5087248;28;20259;-49
2022/04/22 09:12:20;;;;;;;7.63;3.17;;;12.40;99.90;;;;;;5101922;27;20280;-50
2022/04/22 09:14:49;;;;;;;4.17;2.50;;;12.40;99.90;;;;;;5111163;27;20188;-48
2022/04/22 09:17:17;;;;;;;6.27;3.43;;;12.50;99.90;;;;;;5089209;27;20204;-47
2022/04/22 09:19:45;;;;;;;6.43;2.60;;;12.60;99.90;;;;;;5083867;27;20898;-49
2022/04/22 09:22:12;;;;;;;4.27;2.90;;;12.70;99.90;;;;;;5085330;28;20224;-50
2022/04/22 09:24:50;;;;;;;4.77;2.87;;;12.80;99.90;;;;;;5092979;27;20285;-50
2022/04/22 09:27:18;;;;;;;6.63;2.93;;;12.80;99.90;;;;;;5101138;27;20208;-50
2022/04/22 09:29:52;;;;;;;3.83;2.60;;;12.80;99.90;;;;;;5093499;27;20208;-46
2022/04/22 09:32:23;;;;;;;6.20;3.07;;;12.70;99.90;;;;;;5092024;28;20224;-53
2022/04/22 09:34:50;;;;;;;5.80;3.30;;;12.80;99.90;;;;;;5086562;28;21016;-47
2022/04/22 09:42:56;;;;;;;9.33;3.07;;;12.90;99.90;;;;;;5084071;27;20217;-49
2022/04/22 09:45:35;;;;;;;6.17;3.10;;;13.00;99.90;;;;;;5090902;27;20669;-53
2022/04/22 09:48:03;;;;;;;10.60;3.60;;;13.00;99.90;;;;;;5088496;28;20232;-47
2022/04/22 09:50:42;;;;;;;6.60;3.10;;;12.90;99.90;;;;;;5079816;28;20228;-52
2022/04/22 09:53:10;;;;;;;4.80;3.30;;;12.80;99.90;;;;;;5086703;28;20223;-47
2022/04/22 09:55:47;;;;;;;7.57;3.20;;;12.70;99.90;;;;;;5093737;28;20921;-48
2022/04/22 09:58:22;;;;;;;7.03;3.33;;;12.60;99.90;;;;;;5082144;28;20764;-52
2022/04/22 10:00:53;;;;;;;6.57;3.10;;;12.60;99.90;;;;;;5099852;28;20291;-47
2022/04/22 10:03:23;;;;;;;7.70;2.93;;;12.60;99.90;;;;;;5090351;28;20221;-52
2022/04/22 10:05:53;;;;;;;6.40;3.03;;;12.70;99.90;;;;;;5086622;28;20197;-49
2022/04/22 10:08:21;;;;;;;5.47;3.30;;;12.70;99.90;;;;;;5091778;28;20319;-52
2022/04/22 10:10:51;;;;;;;6.77;3.33;;;12.70;99.90;;;;;;5086647;28;20224;-53
2022/04/22 10:13:22;;;;;;;7.73;3.20;;;12.60;99.90;;;;;;5097152;28;20559;-51
2022/04/22 10:15:49;;;;;;;6.23;3.37;;;12.70;99.90;;;;;;5088162;28;20197;-49
2022/04/22 10:18:17;;;;;;;7.60;3.43;;;12.80;99.90;;;;;;5092281;28;20193;-52
2022/04/22 10:20:46;;;;;;;6.40;3.23;;;12.80;99.90;;;;;;5093908;28;20219;-46
2022/04/22 10:23:13;;;;;;;4.80;3.20;;;12.80;99.90;;;;;;5094144;28;20236;-49
2022/04/22 10:25:40;;;;;;;7.07;3.83;;;12.70;99.90;;;;;;5094335;28;20917;-47
2022/04/22 10:28:10;;;;;;;4.17;3.47;;;12.60;99.90;;;;;;5090630;28;20220;-50
2022/04/22 10:30:39;;;;;;;7.83;3.40;;;12.50;99.90;;;;;;5091157;28;20299;-49
2022/04/22 10:33:07;;;;;;;6.00;3.80;;;12.30;99.90;;;;;;5093872;28;20210;-50
2022/04/22 10:35:39;;;;;;;7.17;3.80;;;12.20;99.90;;;;;;5082331;28;20186;-47
2022/04/22 10:38:06;;;;;;;7.17;3.33;;;12.20;99.90;;;;;;5088187;28;20677;-46
2022/04/22 10:40:32;;;;;;;6.73;3.23;;;12.20;99.90;;;;;;5091482;28;20285;-50
2022/04/22 10:43:02;;;;;;;5.77;3.03;;;12.30;99.90;;;;;;5096590;28;20214;-48
2022/04/22 10:48:21;;;;;;;7.60;3.30;;;12.20;99.90;;;;;;5093488;28;20660;-47
2022/04/22 10:50:57;;;;;;;6.03;3.40;;;12.10;99.90;;;;;;5083668;28;20197;-51
2022/04/22 10:53:25;;;;;;;7.37;3.70;;;12.00;99.90;;;;;;5098287;27;20239;-48
2022/04/22 10:55:52;;;;;;;9.63;4.70;;;11.90;99.90;;;;;;5083870;28;20201;-52
2022/04/22 10:58:24;;;;;;;5.67;3.50;;;11.80;99.90;;;;;;5099004;28;20209;-52
2022/04/22 11:00:57;;;;;;;7.27;3.30;;;11.70;99.90;;;;;;5085361;28;20261;-53
2022/04/22 11:03:27;;;;;;;6.13;3.10;;;11.70;99.90;;;;;;5106905;28;20224;-52
2022/04/22 11:05:58;;;;;;;6.13;3.43;;;11.80;99.90;;;;;;5094071;28;20205;-50
2022/04/22 11:08:34;;;;;;;10.77;3.80;;;11.80;99.90;;;;;;5085671;28;20217;-52
2022/04/22 11:11:22;;;;;;;5.60;3.50;;;11.90;99.90;;;;;;5095386;27;20249;-50
2022/04/22 11:13:50;;;;;;;6.10;3.20;;;11.80;99.90;;;;;;5082361;27;20205;-47
2022/04/22 11:16:29;;;;;;;8.67;3.50;;;11.80;99.90;;;;;;5113476;27;20723;-46
2022/04/22 11:19:27;;;;;;;6.33;3.50;;;11.90;99.90;;;;;;5095084;27;20186;-48
2022/04/22 11:21:55;;;;;;;9.33;3.23;;;12.10;99.90;;;;;;5086531;28;20274;-49
2022/04/22 11:24:25;;;;;;;4.77;2.70;;;12.10;99.90;;;;;;5095484;27;20224;-52
2022/04/22 11:26:52;;;;;;;6.80;3.40;;;12.20;99.90;;;;;;5088305;28;20224;-46
2022/04/22 11:29:20;;;;;;;7.73;3.13;;;12.30;99.90;;;;;;5093464;27;20193;-49
2022/04/22 11:31:57;;;;;;;6.23;3.13;;;12.30;99.90;;;;;;5087277;27;20228;-50
2022/04/22 11:34:55;;;;;;;7.63;3.67;;;12.40;99.90;;;;;;5098317;27;20197;-50
2022/04/22 11:37:23;;;;;;;11.03;4.17;;;12.50;99.90;;;;;;5089382;27;20213;-49
2022/04/22 11:39:51;;;;;;;7.27;3.60;;;12.60;99.90;;;;;;5091874;27;20190;-47
2022/04/22 11:42:18;;;;;;;4.70;3.50;;;12.80;99.90;;;;;;5095897;27;20225;-53
2022/04/22 11:44:45;;;;;;;8.93;3.70;;;13.00;99.90;;;;;;5086226;27;23746;-49
2022/04/22 11:47:12;;;;;;;10.07;3.43;;;13.20;99.90;;;;;;5105161;27;20212;-49
2022/04/22 11:49:40;;;;;;;6.57;3.60;;;13.20;99.90;;;;;;5097762;27;20227;-48
2022/04/22 11:52:08;;;;;;;8.10;3.67;;;13.30;99.90;;;;;;5093514;27;20694;-47
2022/04/22 11:54:36;;;;;;;5.70;3.03;;;13.40;99.90;;;;;;5090596;27;20284;-50
2022/04/22 11:57:05;;;;;;;5.40;3.93;;;13.50;99.90;;;;;;5092161;28;20682;-53
2022/04/22 11:59:31;;;;;;;7.17;3.63;;;13.60;99.90;;;;;;5091013;28;20206;-48
2022/04/22 12:10:16;;;;;;;6.87;3.57;;;14.00;99.90;;;;;;5085588;28;20284;-53
2022/04/22 12:12:48;;;;;;;10.30;4.13;;;14.20;99.90;;;;;;5105438;27;20209;-49
2022/04/22 12:15:18;;;;;;;7.67;4.00;;;14.20;99.90;;;;;;5099420;27;20190;-52
2022/04/22 12:17:45;;;;;;;7.20;4.00;;;14.20;99.90;;;;;;5102905;27;20200;-48
2022/04/22 12:20:14;;;;;;;8.20;4.50;;;14.40;99.90;;;;;;5102736;27;20230;-48
2022/04/22 12:22:41;;;;;;;4.87;3.90;;;14.50;99.90;;;;;;5088600;28;20249;-46
2022/04/22 12:25:10;;;;;;;10.83;4.67;;;14.50;99.90;;;;;;5085277;27;20194;-51
2022/04/22 12:27:37;;;;;;;5.03;3.60;;;14.60;99.90;;;;;;5099949;28;20215;-49
2022/04/22 12:30:06;;;;;;;7.67;3.63;;;14.70;99.90;;;;;;5090874;27;20200;-52
2022/04/22 12:32:33;;;;;;;5.30;3.93;;;14.90;99.90;;;;;;5090824;27;20225;-48
2022/04/22 12:35:15;;;;;;;7.47;3.90;;;15.00;99.90;;;;;;5097646;27;20202;-52
2022/04/22 12:37:46;;;;;;;8.33;4.80;;;14.80;99.90;;;;;;5106789;27;20192;-47
2022/04/22 12:40:15;;;;;;;5.77;3.83;;;14.50;99.90;;;;;;5091656;27;20193;-49
2022/04/22 12:42:42;;;;;;;6.30;3.73;;;14.60;99.90;;;;;;5094260;27;20221;-47
2022/04/22 12:53:33;;;;;;;7.80;4.03;;;15.10;99.90;;;;;;5086764;27;20221;-49
2022/04/22 12:56:00;;;;;;;7.20;3.93;;;15.10;99.90;;;;;;5096037;27;20205;-52
2022/04/22 12:58:27;;;;;;;7.47;4.23;;;15.20;99.90;;;;;;5089248;27;20186;-48
2022/04/22 13:00:54;;;;;;;5.63;4.07;;;15.20;99.90;;;;;;5092263;28;20658;-49
2022/04/22 13:03:22;;;;;;;6.47;3.90;;;;;;;;;;5089693;27;21076;-51
2022/04/22 13:05:51;;;;;;;6.60;3.67;;;;;;;;;;5105568;27;20279;-49
2022/04/22 13:08:18;;;;;;;8.27;4.13;;;;;;;;;;5087439;27;20280;-54
2022/04/22 13:10:47;;;;;;;9.97;4.30;;;15.40;99.90;;;;;;5092935;27;20665;-50
2022/04/22 13:13:16;;;;;;;7.40;4.00;;;15.50;99.90;;;;;;5091420;28;20221;-47
2022/04/22 13:15:42;;;;;;;6.43;3.87;;;15.70;99.90;;;;;;5094271;27;20219;-48
2022/04/22 13:18:11;;;;;;;11.07;4.07;;;15.90;99.90;;;;;;5080185;27;20229;-47
2022/04/22 13:20:38;;;;;;;6.23;3.73;;;15.90;99.90;;;;;;5098451;27;20367;-46
2022/04/22 13:23:06;;;;;;;6.00;3.37;;;15.90;99.90;;;;;;5105329;27;20589;-53
2022/04/22 13:25:32;;;;;;;5.47;4.00;;;16.00;99.90;;;;;;5086880;28;20198;-50
2022/04/22 13:28:00;;;;;;;7.27;4.00;;;16.30;99.90;;;;;;5090219;28;20205;-50
2022/04/22 13:30:27;;;;;;;7.30;3.33;;;16.40;99.90;;;;;;5088487;28;20204;-47
2022/04/22 13:32:54;;;;;;;8.20;3.63;;;16.70;99.90;;;;;;5090763;27;20253;-52
2022/04/22 13:35:21;;;;;;;7.47;4.20;;;17.30;99.90;;;;;;5081261;27;20944;-48
2022/04/22 13:37:48;;;;;;;4.90;3.50;;;17.60;99.90;;;;;;5118236;27;20184;-53
2022/04/22 13:40:16;;;;;;;5.83;3.20;;;17.90;99.90;;;;;;5088233;28;20196;-47
2022/04/22 13:42:45;;;;;;;6.57;3.47;;;17.70;99.50;;;;;;5092965;28;20317;-47
2022/04/22 13:53:25;;;;;;;6.57;3.20;;;17.20;99.90;;;;;;5106831;27;20224;-49
2022/04/22 13:55:54;;;;;;;6.47;3.50;;;17.00;99.70;;;;;;5088969;27;20206;-51
2022/04/22 13:58:20;;;;;;;7.47;3.00;;;17.10;99.50;;;;;;5088352;27;20434;-49
2022/04/22 14:00:47;;;;;;;5.53;3.20;;;17.50;98.60;;;;;;5097219;27;20615;-47
2022/04/22 14:03:14;;;;;;;5.47;3.40;;;17.80;98.40;;;;;;5098233;28;20231;-47
2022/04/22 14:05:41;;;;;;;9.23;3.90;;;17.80;98.30;;;;;;5085867;28;20197;-50
2022/04/22 14:08:08;;;;;;;3.80;3.33;;;17.60;97.70;;;;;;5100871;28;20216;-50